Thunder Bay Airport
CYQT : now visible

Airfield :











YOU CAN JOIN US ON...

 
LOGIN :

Register | Disclaimer

   EN    FR    IT 

 









Legend :    VFR   Marginal VFR   IFR   Intensive IFR   Very Intensive IFR
Visi :
Ceiling :
>= 8 km
>= 3000ft
5 to 8 km
1000 to 3000 ft
1500m to 5 km
500 to 1000 ft
800 to 1500m
200 to 500 ft
< 800m
< 200 ft
Symbols :   Thunderstorms  Fog  Heavy snow  Heavy precipitations  Wind > 20 kt






- Airport Elevation : 653 ft
- IATA code : YQT


CYQT - Thunder Bay

CURRENT METAR :
  • 211500Z 10009KT 050V120 20SM FEW020 BKN033 OVC110 14/09 A2986 RMK CF1SC6AS2 CF TR SLP117

EXPIRED METARs :
  • 211400Z 04006KT 20SM BKN030 BKN110 12/09 A2986 RMK SC5AC2 PRESFR SLP119
  • 211300Z 01004KT 20SM BKN033 OVC110 11/08 A2989 RMK SC5AC3 SLP129
  • 211200Z 16003KT 110V240 20SM BKN100 09/08 A2989 RMK AC7 SLP127
  • 211100Z VRB02KT 20SM FEW130 SCT260 07/06 A2985 RMK AC2CI1 SLP116

TAF TAF CYQT
Valid from the 21 at 14:00 until the 22 at 02:00 UTC


211341Z 2114/2202 VRB03KT P6SM SCT030 BKN100
TEMPO 2114/2120 FEW007 BKN030 BKN100
PROB30 2114/2120 BKN007
FM212000 09012KT P6SM -RA SCT008 OVC030
TEMPO 2120/2124 3SM -RA BR BKN008 OVC030
FM220000 09012KT P6SM SCT006 OVC040
TEMPO 2200/2202 6SM -SHRA BKN006 OVC040
PROB30 2200/2202 1 1/2SM BR RMK NXT FCST BY 212000Z
CZWG FIR / North America



MET'MAP, your aeronautical weather chart ! - Copyright ORBIFLY December 2007 - Disclaimer

ORBIFLY MET'MAP TEAM :

Programming & Development : Alexandra Zaïnal
Original concept : Baudouin d'Aumeries
Technical & hardware support : Manuel Goepfert
Assistance : Marc-Olivier Méhu




SOURCES & CREDITS :

   NOAA       Earth
Advisory